Terminal Aerodrome Forecast
Issued by NWS

Home | Current Version | Previous Version | Text Only | Print | Product List | Glossary Off
Versions: 1 2 3 4 5 6 7 8 9 10 11 12 13 14 15 16 17 18 19 20

000
FTUS43 KTOP 231100
TAFFOE
TAF
KFOE 231120Z 2312/2412 13008KT P6SM VCSH SCT006 OVC015
     FM231300 12009KT P6SM VCSH BKN008 OVC015
     FM231700 13012KT P6SM SHRA BKN015 OVC025
     FM240100 10010KT 4SM RA VCTS BKN015CB OVC025
      TEMPO 2405/2409 1SM +TSRA BKN005CB=

USA.gov is the U.S. government's official web portal to all federal, state and local government web resources and services.